This is the latest recevied weather packets stored in our database for station/object N8ESC. If no packets are shown the sender has not sent any weather packets the latest 1 day(s).
| Time | Temp. | Humidity | Pressure | Rain* | Wind** | Luminosity | Snow |
|---|---|---|---|---|---|---|---|
| 1778093626 | 6.67° C | 45% | 1011 hPa | 0 mm | - | 262 W/m² | - |
| 1778093323 | 6.67° C | 46% | 1011.2 hPa | 0 mm | - | 224 W/m² | - |
| 1778092413 | 6.67° C | 45% | 1011.1 hPa | 0 mm | - | 287 W/m² | - |
| 1778091203 | 6.67° C | 45% | 1011 hPa | 0 mm | - | 264 W/m² | - |
| 1778089989 | 6.11° C | 45% | 1011.2 hPa | 0 mm | - | 165 W/m² | - |
| 1778087869 | 6.11° C | 45% | 1011.5 hPa | 0 mm | - | 142 W/m² | - |
| 1778086355 | 6.11° C | 44% | 1011.6 hPa | 0 mm | - | 166 W/m² | - |
| 1778085446 | 6.11° C | 43% | 1011.5 hPa | 0 mm | - | 145 W/m² | - |
| 1778084837 | 6.11° C | 43% | 1011.6 hPa | 0 mm | - | 226 W/m² | - |
| 1778082718 | 5.56° C | 44% | 1011.4 hPa | 0 mm | - | 223 W/m² | - |
| 1778081580 | 5.56° C | 44% | 1011.5 hPa | 0 mm | - | 228 W/m² | - |
| 1778080974 | 5.56° C | 45% | 1011.4 hPa | 0 mm | - | 206 W/m² | - |
| 1778079763 | 5.56° C | 46% | 1011.4 hPa | 0 mm | - | 263 W/m² | - |
| 1778079460 | 5.56° C | 47% | 1011.3 hPa | 0 mm | - | 296 W/m² | - |
| 1778079156 | 5.56° C | 47% | 1011.3 hPa | 0 mm | - | 301 W/m² | - |
| 1778078854 | 5° C | 49% | 1011.2 hPa | 0 mm | - | 260 W/m² | - |
| 1778078551 | 5.56° C | 49% | 1011.5 hPa | 0 mm | - | 261 W/m² | - |
| 1778076435 | 4.44° C | 53% | 1011.4 hPa | 0 mm | - | 233 W/m² | - |
| 1778076132 | 4.44° C | 53% | 1011.4 hPa | 0 mm | - | 228 W/m² | - |
| 1778075525 | 4.44° C | 53% | 1011.6 hPa | 0 mm | - | 264 W/m² | - |
| 1778074615 | 5° C | 52% | 1011.5 hPa | 0 mm | - | 391 W/m² | - |
| 1778072494 | 3.89° C | 58% | 1011.4 hPa | 0 mm | - | 159 W/m² | - |
| 1778072192 | 3.33° C | 58% | 1011.5 hPa | 0 mm | - | 134 W/m² | - |
| 1778071587 | 3.33° C | 59% | 1011.2 hPa | 0 mm | - | 122 W/m² | - |
| 1778070377 | 2.78° C | 63% | 1011.3 hPa | 0 mm | - | 97 W/m² | - |
* Rain latest hour (hover to see other rain measurements)
** Current wind speed in m/s (hover to see current wind gust speed)